PWSweather.com
Personal Weather Stations
Station Observations
URBANDALE
Westwind Acres And Meredith Hills, Urbandale, IA 50322

Westwind Acres And Meredith HillsUrbandale, IA 50322

Lat: 41.643, Lon: -93.709

Elevation: 928

Station Type:

http://urbandaleweather.com

High Low Average
Temperature 41.7°F5.4°C 28.9°F-1.7°C 36.7°F2.6°C
Dew Point 38.5°F3.6°C 19.8°F-6.8°C 31.1°F-0.5°C
Winds 2.0 mph 3.2 kmh Calm Calm Calm SWCalm SW
Wind Gusts 6.0 mph9.7 kmh -- 2.0 mph3.2 kmh
Humidity 95% 63% 81%
Pressure 30.18 in1022.0 mb 30.05 in1017.6 mb -
Precipitation 0.07 in1.8 mm - -
Hour Temp Dew Point Humidity Winds Wind Gusts Pressure Precip Precip Rate Daily Precip Total
12:03 AM 29.7°F-1.3°C 19.8°F-6.8°C 66% Calm Calm 0.9 mph1.4 kmh 30.08 in1018.6 mb 0.00 in0.0 mm 0.00 in0.0 mm 0.00 in0.0 mm
12:08 AM 29.7°F-1.3°C 19.8°F-6.8°C 66% Calm Calm 2.0 mph3.2 kmh 30.08 in1018.6 mb 0.00 in0.0 mm 0.00 in0.0 mm 0.00 in0.0 mm
12:13 AM 29.7°F-1.3°C 19.8°F-6.8°C 66% Calm Calm 2.0 mph3.2 kmh 30.08 in1018.6 mb 0.00 in0.0 mm 0.00 in0.0 mm 0.00 in0.0 mm
12:18 AM 29.7°F-1.3°C 19.8°F-6.8°C 66% Calm Calm 2.0 mph3.2 kmh 30.08 in1018.6 mb 0.00 in0.0 mm 0.00 in0.0 mm 0.00 in0.0 mm
12:23 AM 29.7°F-1.3°C 19.8°F-6.8°C 66% Calm Calm 2.0 mph3.2 kmh 30.08 in1018.6 mb 0.00 in0.0 mm 0.00 in0.0 mm 0.00 in0.0 mm
12:28 AM 29.5°F-1.4°C 19.9°F-6.7°C 67% Calm Calm 2.0 mph3.2 kmh 30.08 in1018.6 mb 0.00 in0.0 mm 0.00 in0.0 mm 0.00 in0.0 mm
12:33 AM 29.5°F-1.4°C 20.3°F-6.5°C 68% Calm Calm 2.0 mph3.2 kmh 30.08 in1018.6 mb 0.00 in0.0 mm 0.00 in0.0 mm 0.00 in0.0 mm
12:38 AM 29.5°F-1.4°C 20.3°F-6.5°C 68% Calm Calm 2.0 mph3.2 kmh 30.08 in1018.6 mb 0.00 in0.0 mm 0.00 in0.0 mm 0.00 in0.0 mm
12:43 AM 29.3°F-1.5°C 20.1°F-6.6°C 68% Calm Calm 2.0 mph3.2 kmh 30.08 in1018.6 mb 0.00 in0.0 mm 0.00 in0.0 mm 0.00 in0.0 mm
12:48 AM 29.3°F-1.5°C 20.5°F-6.4°C 69% 0.9 mph S1.4 kmh S 2.0 mph3.2 kmh 30.08 in1018.6 mb 0.00 in0.0 mm 0.00 in0.0 mm 0.00 in0.0 mm
12:53 AM 29.3°F-1.5°C 20.5°F-6.4°C 69% 0.9 mph S1.4 kmh S 3.0 mph4.8 kmh 30.08 in1018.6 mb 0.00 in0.0 mm 0.00 in0.0 mm 0.00 in0.0 mm
12:58 AM 29.1°F-1.6°C 20.3°F-6.5°C 69% 0.9 mph S1.4 kmh S 2.9 mph4.7 kmh 30.08 in1018.6 mb 0.00 in0.0 mm 0.00 in0.0 mm 0.00 in0.0 mm
01:03 AM 29.1°F-1.6°C 20.5°F-6.4°C 70% Calm Calm 2.9 mph4.7 kmh 30.07 in1018.3 mb 0.00 in0.0 mm 0.00 in0.0 mm 0.00 in0.0 mm
01:08 AM 29.1°F-1.6°C 20.5°F-6.4°C 70% 0.9 mph SSW1.4 kmh SSW 2.0 mph3.2 kmh 30.07 in1018.3 mb 0.00 in0.0 mm 0.00 in0.0 mm 0.00 in0.0 mm
01:13 AM 29.1°F-1.6°C 20.5°F-6.4°C 70% 0.9 mph SSW1.4 kmh SSW 2.0 mph3.2 kmh 30.07 in1018.3 mb 0.00 in0.0 mm 0.00 in0.0 mm 0.00 in0.0 mm
01:18 AM 29.1°F-1.6°C 20.5°F-6.4°C 70% Calm Calm 2.0 mph3.2 kmh 30.07 in1018.3 mb 0.00 in0.0 mm 0.00 in0.0 mm 0.00 in0.0 mm
01:23 AM 29.3°F-1.5°C 20.7°F-6.3°C 70% 0.9 mph SSW1.4 kmh SSW 2.0 mph3.2 kmh 30.07 in1018.3 mb 0.00 in0.0 mm 0.00 in0.0 mm 0.00 in0.0 mm
01:28 AM 29.5°F-1.4°C 20.8°F-6.2°C 70% 0.9 mph SSW1.4 kmh SSW 2.0 mph3.2 kmh 30.07 in1018.3 mb 0.00 in0.0 mm 0.00 in0.0 mm 0.00 in0.0 mm
01:33 AM 29.5°F-1.4°C 21.2°F-6.0°C 71% 0.9 mph S1.4 kmh S 2.0 mph3.2 kmh 30.07 in1018.3 mb 0.00 in0.0 mm 0.00 in0.0 mm 0.00 in0.0 mm
01:38 AM 29.5°F-1.4°C 21.2°F-6.0°C 71% 0.9 mph S1.4 kmh S 2.0 mph3.2 kmh 30.07 in1018.3 mb 0.00 in0.0 mm 0.00 in0.0 mm 0.00 in0.0 mm
01:43 AM 29.5°F-1.4°C 21.2°F-6.0°C 71% 0.9 mph S1.4 kmh S 4.9 mph7.9 kmh 30.07 in1018.3 mb 0.00 in0.0 mm 0.00 in0.0 mm 0.00 in0.0 mm
01:48 AM 29.3°F-1.5°C 21.0°F-6.1°C 71% 0.9 mph S1.4 kmh S 2.9 mph4.7 kmh 30.06 in1017.9 mb 0.00 in0.0 mm 0.00 in0.0 mm 0.00 in0.0 mm
01:53 AM 29.3°F-1.5°C 21.4°F-5.9°C 72% Calm Calm 0.9 mph1.4 kmh 30.07 in1018.3 mb 0.00 in0.0 mm 0.00 in0.0 mm 0.00 in0.0 mm
01:58 AM 29.3°F-1.5°C 21.4°F-5.9°C 72% Calm Calm 0.9 mph1.4 kmh 30.07 in1018.3 mb 0.00 in0.0 mm 0.00 in0.0 mm 0.00 in0.0 mm
02:03 AM 29.1°F-1.6°C 21.2°F-6.0°C 72% Calm Calm 0.9 mph1.4 kmh 30.07 in1018.3 mb 0.00 in0.0 mm 0.00 in0.0 mm 0.00 in0.0 mm
02:08 AM 29.1°F-1.6°C 21.2°F-6.0°C 72% 0.9 mph S1.4 kmh S 3.0 mph4.8 kmh 30.07 in1018.3 mb 0.00 in0.0 mm 0.00 in0.0 mm 0.00 in0.0 mm
02:13 AM 29.1°F-1.6°C 21.6°F-5.8°C 73% 0.9 mph S1.4 kmh S 2.9 mph4.7 kmh 30.06 in1017.9 mb 0.00 in0.0 mm 0.00 in0.0 mm 0.00 in0.0 mm
02:18 AM 28.9°F-1.7°C 21.4°F-5.9°C 73% 0.9 mph S1.4 kmh S 2.0 mph3.2 kmh 30.06 in1017.9 mb 0.00 in0.0 mm 0.00 in0.0 mm 0.00 in0.0 mm
02:23 AM 28.9°F-1.7°C 21.4°F-5.9°C 73% 0.9 mph SSW1.4 kmh SSW 4.0 mph6.4 kmh 30.06 in1017.9 mb 0.00 in0.0 mm 0.00 in0.0 mm 0.00 in0.0 mm
02:28 AM 28.9°F-1.7°C 21.7°F-5.7°C 74% 0.9 mph S1.4 kmh S 2.9 mph4.7 kmh 30.05 in1017.6 mb 0.00 in0.0 mm 0.00 in0.0 mm 0.00 in0.0 mm
02:33 AM 29.3°F-1.5°C 22.1°F-5.5°C 74% 0.9 mph SW1.4 kmh SW 4.0 mph6.4 kmh 30.05 in1017.6 mb 0.00 in0.0 mm 0.00 in0.0 mm 0.00 in0.0 mm
02:38 AM 29.5°F-1.4°C 22.3°F-5.4°C 74% 2.0 mph S3.2 kmh S 5.0 mph8.0 kmh 30.06 in1017.9 mb 0.00 in0.0 mm 0.00 in0.0 mm 0.00 in0.0 mm
02:43 AM 29.7°F-1.3°C 22.1°F-5.5°C 73% 0.9 mph S1.4 kmh S 4.0 mph6.4 kmh 30.05 in1017.6 mb 0.00 in0.0 mm 0.00 in0.0 mm 0.00 in0.0 mm
02:48 AM 29.8°F-1.2°C 22.3°F-5.4°C 73% 0.9 mph S1.4 kmh S 5.0 mph8.0 kmh 30.05 in1017.6 mb 0.00 in0.0 mm 0.00 in0.0 mm 0.00 in0.0 mm
02:53 AM 30.0°F-1.1°C 22.1°F-5.5°C 72% 0.9 mph SSW1.4 kmh SSW 4.0 mph6.4 kmh 30.05 in1017.6 mb 0.00 in0.0 mm 0.00 in0.0 mm 0.00 in0.0 mm
02:58 AM 30.0°F-1.1°C 22.1°F-5.5°C 72% 0.9 mph SSW1.4 kmh SSW 2.9 mph4.7 kmh 30.06 in1017.9 mb 0.00 in0.0 mm 0.00 in0.0 mm 0.00 in0.0 mm
03:03 AM 30.2°F-1.0°C 22.3°F-5.4°C 72% Calm Calm 0.9 mph1.4 kmh 30.06 in1017.9 mb 0.00 in0.0 mm 0.00 in0.0 mm 0.00 in0.0 mm
03:08 AM 30.2°F-1.0°C 22.3°F-5.4°C 72% Calm Calm 2.0 mph3.2 kmh 30.06 in1017.9 mb 0.00 in0.0 mm 0.00 in0.0 mm 0.00 in0.0 mm
03:13 AM 30.4°F-0.9°C 22.5°F-5.3°C 72% Calm Calm 2.0 mph3.2 kmh 30.06 in1017.9 mb 0.00 in0.0 mm 0.00 in0.0 mm 0.00 in0.0 mm
03:18 AM 30.4°F-0.9°C 22.5°F-5.3°C 72% Calm Calm 2.0 mph3.2 kmh 30.06 in1017.9 mb 0.00 in0.0 mm 0.00 in0.0 mm 0.00 in0.0 mm
03:23 AM 30.6°F-0.8°C 22.6°F-5.2°C 72% Calm Calm 0.9 mph1.4 kmh 30.06 in1017.9 mb 0.00 in0.0 mm 0.00 in0.0 mm 0.00 in0.0 mm
03:28 AM 30.6°F-0.8°C 22.6°F-5.2°C 72% Calm Calm 0.9 mph1.4 kmh 30.06 in1017.9 mb 0.00 in0.0 mm 0.00 in0.0 mm 0.00 in0.0 mm
03:34 AM 30.7°F-0.7°C 22.5°F-5.3°C 71% Calm Calm 2.0 mph3.2 kmh 30.06 in1017.9 mb 0.00 in0.0 mm 0.00 in0.0 mm 0.00 in0.0 mm
03:39 AM 30.9°F-0.6°C 22.6°F-5.2°C 71% Calm Calm 0.9 mph1.4 kmh 30.05 in1017.6 mb 0.00 in0.0 mm 0.00 in0.0 mm 0.00 in0.0 mm
03:44 AM 30.9°F-0.6°C 22.6°F-5.2°C 71% Calm Calm 2.0 mph3.2 kmh 30.05 in1017.6 mb 0.00 in0.0 mm 0.00 in0.0 mm 0.00 in0.0 mm
03:49 AM 31.1°F-0.5°C 22.5°F-5.3°C 70% Calm Calm 2.0 mph3.2 kmh 30.05 in1017.6 mb 0.00 in0.0 mm 0.00 in0.0 mm 0.00 in0.0 mm
03:54 AM 31.3°F-0.4°C 22.6°F-5.2°C 70% 0.9 mph S1.4 kmh S 2.0 mph3.2 kmh 30.05 in1017.6 mb 0.00 in0.0 mm 0.00 in0.0 mm 0.00 in0.0 mm
03:59 AM 31.3°F-0.4°C 22.6°F-5.2°C 70% Calm Calm 2.0 mph3.2 kmh 30.05 in1017.6 mb 0.00 in0.0 mm 0.00 in0.0 mm 0.00 in0.0 mm
04:04 AM 31.3°F-0.4°C 22.6°F-5.2°C 70% Calm Calm 2.0 mph3.2 kmh 30.05 in1017.6 mb 0.00 in0.0 mm 0.00 in0.0 mm 0.00 in0.0 mm
04:09 AM 31.3°F-0.4°C 22.6°F-5.2°C 70% 0.9 mph S1.4 kmh S 2.0 mph3.2 kmh 30.05 in1017.6 mb 0.00 in0.0 mm 0.00 in0.0 mm 0.00 in0.0 mm
04:14 AM 31.3°F-0.4°C 22.6°F-5.2°C 70% 0.9 mph SW1.4 kmh SW 2.0 mph3.2 kmh 30.05 in1017.6 mb 0.00 in0.0 mm 0.00 in0.0 mm 0.00 in0.0 mm
04:19 AM 31.3°F-0.4°C 22.6°F-5.2°C 70% Calm Calm 2.9 mph4.7 kmh 30.05 in1017.6 mb 0.00 in0.0 mm 0.00 in0.0 mm 0.00 in0.0 mm
04:24 AM 31.1°F-0.5°C 22.8°F-5.1°C 71% Calm Calm 2.0 mph3.2 kmh 30.05 in1017.6 mb 0.00 in0.0 mm 0.00 in0.0 mm 0.00 in0.0 mm
04:29 AM 30.9°F-0.6°C 22.6°F-5.2°C 71% Calm Calm 2.0 mph3.2 kmh 30.05 in1017.6 mb 0.00 in0.0 mm 0.00 in0.0 mm 0.00 in0.0 mm
04:34 AM 30.9°F-0.6°C 22.6°F-5.2°C 71% Calm Calm 0.9 mph1.4 kmh 30.05 in1017.6 mb 0.00 in0.0 mm 0.00 in0.0 mm 0.00 in0.0 mm
04:39 AM 30.9°F-0.6°C 22.6°F-5.2°C 71% 0.9 mph SW1.4 kmh SW 4.0 mph6.4 kmh 30.06 in1017.9 mb 0.00 in0.0 mm 0.00 in0.0 mm 0.00 in0.0 mm
04:44 AM 31.1°F-0.5°C 22.8°F-5.1°C 71% 0.9 mph SSE1.4 kmh SSE 2.0 mph3.2 kmh 30.05 in1017.6 mb 0.00 in0.0 mm 0.00 in0.0 mm 0.00 in0.0 mm
04:49 AM 31.3°F-0.4°C 23.0°F-5.0°C 71% 0.9 mph SSE1.4 kmh SSE 2.9 mph4.7 kmh 30.06 in1017.9 mb 0.00 in0.0 mm 0.00 in0.0 mm 0.00 in0.0 mm
04:54 AM 31.3°F-0.4°C 23.0°F-5.0°C 71% 0.9 mph SW1.4 kmh SW 2.9 mph4.7 kmh 30.06 in1017.9 mb 0.00 in0.0 mm 0.00 in0.0 mm 0.00 in0.0 mm
04:59 AM 31.5°F-0.3°C 22.8°F-5.1°C 70% Calm Calm 2.9 mph4.7 kmh 30.06 in1017.9 mb 0.00 in0.0 mm 0.00 in0.0 mm 0.00 in0.0 mm
05:04 AM 31.6°F-0.2°C 23.0°F-5.0°C 70% Calm Calm 0.9 mph1.4 kmh 30.05 in1017.6 mb 0.00 in0.0 mm 0.00 in0.0 mm 0.00 in0.0 mm
05:09 AM 31.6°F-0.2°C 23.0°F-5.0°C 70% Calm Calm 0.9 mph1.4 kmh 30.05 in1017.6 mb 0.00 in0.0 mm 0.00 in0.0 mm 0.00 in0.0 mm
05:14 AM 31.8°F-0.1°C 23.2°F-4.9°C 70% Calm Calm 3.0 mph4.8 kmh 30.05 in1017.6 mb 0.00 in0.0 mm 0.00 in0.0 mm 0.00 in0.0 mm
05:19 AM 31.8°F-0.1°C 22.8°F-5.1°C 69% 0.9 mph SW1.4 kmh SW 2.0 mph3.2 kmh 30.05 in1017.6 mb 0.00 in0.0 mm 0.00 in0.0 mm 0.00 in0.0 mm
05:24 AM 31.8°F-0.1°C 22.8°F-5.1°C 69% 0.9 mph S1.4 kmh S 2.0 mph3.2 kmh 30.05 in1017.6 mb 0.00 in0.0 mm 0.00 in0.0 mm 0.00 in0.0 mm
05:29 AM 32.2°F0.1°C 23.2°F-4.9°C 69% 0.9 mph SW1.4 kmh SW 2.0 mph3.2 kmh 30.05 in1017.6 mb 0.00 in0.0 mm 0.00 in0.0 mm 0.00 in0.0 mm
05:34 AM 32.2°F0.1°C 23.2°F-4.9°C 69% 0.9 mph SSW1.4 kmh SSW 3.0 mph4.8 kmh 30.05 in1017.6 mb 0.00 in0.0 mm 0.00 in0.0 mm 0.00 in0.0 mm
05:39 AM 32.4°F0.2°C 23.0°F-5.0°C 68% Calm Calm 2.9 mph4.7 kmh 30.05 in1017.6 mb 0.00 in0.0 mm 0.00 in0.0 mm 0.00 in0.0 mm
05:44 AM 32.4°F0.2°C 23.0°F-5.0°C 68% Calm Calm 2.0 mph3.2 kmh 30.05 in1017.6 mb 0.00 in0.0 mm 0.00 in0.0 mm 0.00 in0.0 mm
05:49 AM 32.5°F0.3°C 23.2°F-4.9°C 68% Calm Calm 2.0 mph3.2 kmh 30.05 in1017.6 mb 0.00 in0.0 mm 0.00 in0.0 mm 0.00 in0.0 mm
05:54 AM 32.7°F0.4°C 23.0°F-5.0°C 67% Calm Calm 2.0 mph3.2 kmh 30.05 in1017.6 mb 0.00 in0.0 mm 0.00 in0.0 mm 0.00 in0.0 mm
05:59 AM 32.7°F0.4°C 23.0°F-5.0°C 67% Calm Calm 2.9 mph4.7 kmh 30.05 in1017.6 mb 0.00 in0.0 mm 0.00 in0.0 mm 0.00 in0.0 mm
06:04 AM 32.9°F0.5°C 22.8°F-5.1°C 66% Calm Calm 2.0 mph3.2 kmh 30.05 in1017.6 mb 0.00 in0.0 mm 0.00 in0.0 mm 0.00 in0.0 mm
06:09 AM 33.1°F0.6°C 23.0°F-5.0°C 66% Calm Calm 4.0 mph6.4 kmh 30.05 in1017.6 mb 0.00 in0.0 mm 0.00 in0.0 mm 0.00 in0.0 mm
06:14 AM 33.3°F0.7°C 23.2°F-4.9°C 66% Calm Calm 2.0 mph3.2 kmh 30.06 in1017.9 mb 0.00 in0.0 mm 0.00 in0.0 mm 0.00 in0.0 mm
06:19 AM 33.3°F0.7°C 22.8°F-5.1°C 65% Calm Calm 2.9 mph4.7 kmh 30.05 in1017.6 mb 0.00 in0.0 mm 0.00 in0.0 mm 0.00 in0.0 mm
06:24 AM 33.4°F0.8°C 23.0°F-5.0°C 65% Calm Calm 2.0 mph3.2 kmh 30.05 in1017.6 mb 0.00 in0.0 mm 0.00 in0.0 mm 0.00 in0.0 mm
06:29 AM 33.4°F0.8°C 23.0°F-5.0°C 65% Calm Calm 2.0 mph3.2 kmh 30.05 in1017.6 mb 0.00 in0.0 mm 0.00 in0.0 mm 0.00 in0.0 mm
06:34 AM 33.6°F0.9°C 23.2°F-4.9°C 65% 0.9 mph SSW1.4 kmh SSW 2.9 mph4.7 kmh 30.06 in1017.9 mb 0.00 in0.0 mm 0.00 in0.0 mm 0.00 in0.0 mm
06:39 AM 33.6°F0.9°C 23.2°F-4.9°C 65% Calm Calm 2.9 mph4.7 kmh 30.05 in1017.6 mb 0.00 in0.0 mm 0.00 in0.0 mm 0.00 in0.0 mm
06:44 AM 33.6°F0.9°C 23.2°F-4.9°C 65% Calm Calm 4.0 mph6.4 kmh 30.06 in1017.9 mb 0.00 in0.0 mm 0.00 in0.0 mm 0.00 in0.0 mm
06:49 AM 33.6°F0.9°C 23.5°F-4.7°C 66% Calm Calm 0.9 mph1.4 kmh 30.06 in1017.9 mb 0.00 in0.0 mm 0.00 in0.0 mm 0.00 in0.0 mm
06:54 AM 33.6°F0.9°C 23.5°F-4.7°C 66% Calm Calm 0.9 mph1.4 kmh 30.06 in1017.9 mb 0.00 in0.0 mm 0.00 in0.0 mm 0.00 in0.0 mm
06:59 AM 33.6°F0.9°C 23.5°F-4.7°C 66% Calm Calm 0.9 mph1.4 kmh 30.07 in1018.3 mb 0.00 in0.0 mm 0.00 in0.0 mm 0.00 in0.0 mm
07:04 AM 33.6°F0.9°C 23.5°F-4.7°C 66% Calm Calm 0.9 mph1.4 kmh 30.07 in1018.3 mb 0.00 in0.0 mm 0.00 in0.0 mm 0.00 in0.0 mm
07:09 AM 33.6°F0.9°C 23.5°F-4.7°C 66% Calm Calm 0.9 mph1.4 kmh 30.07 in1018.3 mb 0.00 in0.0 mm 0.00 in0.0 mm 0.00 in0.0 mm
07:14 AM 33.6°F0.9°C 23.5°F-4.7°C 66% Calm Calm 0.9 mph1.4 kmh 30.07 in1018.3 mb 0.00 in0.0 mm 0.00 in0.0 mm 0.00 in0.0 mm
07:19 AM 33.6°F0.9°C 23.5°F-4.7°C 66% Calm Calm 0.9 mph1.4 kmh 30.07 in1018.3 mb 0.00 in0.0 mm 0.00 in0.0 mm 0.00 in0.0 mm
07:24 AM 33.8°F1.0°C 23.7°F-4.6°C 66% Calm Calm 0.9 mph1.4 kmh 30.07 in1018.3 mb 0.00 in0.0 mm 0.00 in0.0 mm 0.00 in0.0 mm
07:29 AM 34.0°F1.1°C 23.9°F-4.5°C 66% Calm Calm 2.0 mph3.2 kmh 30.07 in1018.3 mb 0.00 in0.0 mm 0.00 in0.0 mm 0.00 in0.0 mm
07:34 AM 34.0°F1.1°C 23.9°F-4.5°C 66% Calm Calm 0.9 mph1.4 kmh 30.07 in1018.3 mb 0.00 in0.0 mm 0.00 in0.0 mm 0.00 in0.0 mm
07:39 AM 34.2°F1.2°C 23.5°F-4.7°C 65% Calm Calm 0.9 mph1.4 kmh 30.08 in1018.6 mb 0.00 in0.0 mm 0.00 in0.0 mm 0.00 in0.0 mm
07:44 AM 34.2°F1.2°C 23.5°F-4.7°C 65% Calm Calm 3.0 mph4.8 kmh 30.08 in1018.6 mb 0.00 in0.0 mm 0.00 in0.0 mm 0.00 in0.0 mm
07:49 AM 34.3°F1.3°C 23.7°F-4.6°C 65% Calm Calm 0.9 mph1.4 kmh 30.08 in1018.6 mb 0.00 in0.0 mm 0.00 in0.0 mm 0.00 in0.0 mm
07:54 AM 34.3°F1.3°C 23.7°F-4.6°C 65% Calm Calm 0.9 mph1.4 kmh 30.09 in1019.0 mb 0.00 in0.0 mm 0.00 in0.0 mm 0.00 in0.0 mm
07:59 AM 34.5°F1.4°C 23.9°F-4.5°C 65% Calm Calm 3.0 mph4.8 kmh 30.09 in1019.0 mb 0.00 in0.0 mm 0.00 in0.0 mm 0.00 in0.0 mm
08:04 AM 34.7°F1.5°C 24.1°F-4.4°C 65% Calm Calm 3.0 mph4.8 kmh 30.09 in1019.0 mb 0.00 in0.0 mm 0.00 in0.0 mm 0.00 in0.0 mm
08:09 AM 34.7°F1.5°C 24.4°F-4.2°C 66% Calm Calm 0.9 mph1.4 kmh 30.09 in1019.0 mb 0.00 in0.0 mm 0.00 in0.0 mm 0.00 in0.0 mm
08:14 AM 34.9°F1.6°C 24.6°F-4.1°C 66% Calm Calm -- 30.09 in1019.0 mb 0.00 in0.0 mm 0.00 in0.0 mm 0.00 in0.0 mm
08:19 AM 35.1°F1.7°C 24.4°F-4.2°C 65% Calm Calm 0.9 mph1.4 kmh 30.09 in1019.0 mb 0.00 in0.0 mm 0.00 in0.0 mm 0.00 in0.0 mm
08:24 AM 35.2°F1.8°C 24.6°F-4.1°C 65% Calm Calm -- 30.09 in1019.0 mb 0.00 in0.0 mm 0.00 in0.0 mm 0.00 in0.0 mm
08:29 AM 35.4°F1.9°C 24.4°F-4.2°C 64% Calm Calm 2.0 mph3.2 kmh 30.09 in1019.0 mb 0.00 in0.0 mm 0.00 in0.0 mm 0.00 in0.0 mm
08:34 AM 35.8°F2.1°C 24.8°F-4.0°C 64% Calm Calm 0.9 mph1.4 kmh 30.09 in1019.0 mb 0.00 in0.0 mm 0.00 in0.0 mm 0.00 in0.0 mm
08:39 AM 36.0°F2.2°C 25.0°F-3.9°C 64% Calm Calm 0.9 mph1.4 kmh 30.09 in1019.0 mb 0.00 in0.0 mm 0.00 in0.0 mm 0.00 in0.0 mm
08:44 AM 36.3°F2.4°C 25.3°F-3.7°C 64% Calm Calm 0.9 mph1.4 kmh 30.09 in1019.0 mb 0.00 in0.0 mm 0.00 in0.0 mm 0.00 in0.0 mm
08:49 AM 36.7°F2.6°C 25.3°F-3.7°C 63% Calm Calm 2.0 mph3.2 kmh 30.09 in1019.0 mb 0.00 in0.0 mm 0.00 in0.0 mm 0.00 in0.0 mm
08:54 AM 37.0°F2.8°C 26.1°F-3.3°C 64% Calm Calm 2.0 mph3.2 kmh 30.09 in1019.0 mb 0.00 in0.0 mm 0.00 in0.0 mm 0.00 in0.0 mm
08:59 AM 37.4°F3.0°C 25.9°F-3.4°C 63% Calm Calm 2.0 mph3.2 kmh 30.09 in1019.0 mb 0.00 in0.0 mm 0.00 in0.0 mm 0.00 in0.0 mm
09:04 AM 37.8°F3.2°C 26.2°F-3.2°C 63% Calm Calm 2.0 mph3.2 kmh 30.09 in1019.0 mb 0.00 in0.0 mm 0.00 in0.0 mm 0.00 in0.0 mm
09:09 AM 37.9°F3.3°C 26.4°F-3.1°C 63% Calm Calm 2.9 mph4.7 kmh 30.10 in1019.3 mb 0.00 in0.0 mm 0.00 in0.0 mm 0.00 in0.0 mm
09:14 AM 38.1°F3.4°C 26.6°F-3.0°C 63% Calm Calm 0.9 mph1.4 kmh 30.10 in1019.3 mb 0.00 in0.0 mm 0.00 in0.0 mm 0.00 in0.0 mm
09:19 AM 38.3°F3.5°C 26.8°F-2.9°C 63% Calm Calm 2.0 mph3.2 kmh 30.10 in1019.3 mb 0.00 in0.0 mm 0.00 in0.0 mm 0.00 in0.0 mm
09:24 AM 38.5°F3.6°C 27.3°F-2.6°C 64% Calm Calm 0.9 mph1.4 kmh 30.10 in1019.3 mb 0.00 in0.0 mm 0.00 in0.0 mm 0.00 in0.0 mm
09:29 AM 38.8°F3.8°C 27.7°F-2.4°C 64% Calm Calm 2.0 mph3.2 kmh 30.10 in1019.3 mb 0.00 in0.0 mm 0.00 in0.0 mm 0.00 in0.0 mm
09:34 AM 39.0°F3.9°C 27.9°F-2.3°C 64% Calm Calm 4.0 mph6.4 kmh 30.11 in1019.6 mb 0.00 in0.0 mm 0.00 in0.0 mm 0.00 in0.0 mm
09:39 AM 39.2°F4.0°C 28.8°F-1.8°C 66% Calm Calm 2.0 mph3.2 kmh 30.11 in1019.6 mb 0.00 in0.0 mm 0.00 in0.0 mm 0.00 in0.0 mm
09:44 AM 39.6°F4.2°C 29.8°F-1.2°C 68% Calm Calm 2.0 mph3.2 kmh 30.12 in1020.0 mb 0.00 in0.0 mm 0.00 in0.0 mm 0.00 in0.0 mm
09:50 AM 39.7°F4.3°C 30.4°F-0.9°C 69% Calm Calm 3.0 mph4.8 kmh 30.12 in1020.0 mb 0.00 in0.0 mm 0.00 in0.0 mm 0.00 in0.0 mm
09:55 AM 39.9°F4.4°C 31.3°F-0.4°C 71% Calm Calm 2.9 mph4.7 kmh 30.12 in1020.0 mb 0.00 in0.0 mm 0.00 in0.0 mm 0.00 in0.0 mm
10:00 AM 40.1°F4.5°C 31.8°F-0.1°C 72% Calm Calm 2.0 mph3.2 kmh 30.11 in1019.6 mb 0.00 in0.0 mm 0.00 in0.0 mm 0.00 in0.0 mm
10:05 AM 40.1°F4.5°C 32.2°F0.1°C 73% Calm Calm 0.9 mph1.4 kmh 30.11 in1019.6 mb 0.00 in0.0 mm 0.00 in0.0 mm 0.00 in0.0 mm
10:10 AM 40.1°F4.5°C 32.5°F0.3°C 74% Calm Calm 4.0 mph6.4 kmh 30.12 in1020.0 mb 0.00 in0.0 mm 0.00 in0.0 mm 0.00 in0.0 mm
10:15 AM 40.3°F4.6°C 33.1°F0.6°C 75% Calm Calm 4.0 mph6.4 kmh 30.12 in1020.0 mb 0.00 in0.0 mm 0.00 in0.0 mm 0.00 in0.0 mm
10:20 AM 40.5°F4.7°C 33.4°F0.8°C 76% 0.9 mph W1.4 kmh W 4.0 mph6.4 kmh 30.12 in1020.0 mb 0.00 in0.0 mm 0.00 in0.0 mm 0.00 in0.0 mm
10:25 AM 40.5°F4.7°C 33.8°F1.0°C 77% 0.9 mph WNW1.4 kmh WNW 2.9 mph4.7 kmh 30.12 in1020.0 mb 0.00 in0.0 mm 0.00 in0.0 mm 0.00 in0.0 mm
10:30 AM 40.6°F4.8°C 34.0°F1.1°C 77% 0.9 mph NW1.4 kmh NW 2.9 mph4.7 kmh 30.12 in1020.0 mb 0.00 in0.0 mm 0.00 in0.0 mm 0.00 in0.0 mm
10:35 AM 40.6°F4.8°C 34.0°F1.1°C 77% 0.9 mph W1.4 kmh W 2.9 mph4.7 kmh 30.13 in1020.3 mb 0.00 in0.0 mm 0.00 in0.0 mm 0.00 in0.0 mm
10:40 AM 40.6°F4.8°C 34.0°F1.1°C 77% 0.9 mph WNW1.4 kmh WNW 4.0 mph6.4 kmh 30.12 in1020.0 mb 0.00 in0.0 mm 0.00 in0.0 mm 0.00 in0.0 mm
10:45 AM 40.6°F4.8°C 34.0°F1.1°C 77% 0.9 mph NNE1.4 kmh NNE 2.0 mph3.2 kmh 30.12 in1020.0 mb 0.00 in0.0 mm 0.00 in0.0 mm 0.00 in0.0 mm
10:50 AM 40.6°F4.8°C 34.3°F1.3°C 78% 0.9 mph NW1.4 kmh NW 4.9 mph7.9 kmh 30.12 in1020.0 mb 0.00 in0.0 mm 0.00 in0.0 mm 0.00 in0.0 mm
10:55 AM 40.6°F4.8°C 34.7°F1.5°C 79% 0.9 mph NNE1.4 kmh NNE 2.0 mph3.2 kmh 30.13 in1020.3 mb 0.00 in0.0 mm 0.00 in0.0 mm 0.00 in0.0 mm
11:00 AM 40.8°F4.9°C 34.9°F1.6°C 79% 0.9 mph NW1.4 kmh NW 2.9 mph4.7 kmh 30.13 in1020.3 mb 0.00 in0.0 mm 0.00 in0.0 mm 0.00 in0.0 mm
11:05 AM 40.8°F4.9°C 35.1°F1.7°C 80% 0.9 mph WNW1.4 kmh WNW 4.0 mph6.4 kmh 30.12 in1020.0 mb 0.00 in0.0 mm 0.00 in0.0 mm 0.00 in0.0 mm
11:10 AM 41.0°F5.0°C 35.6°F2.0°C 81% Calm Calm 0.9 mph1.4 kmh 30.12 in1020.0 mb 0.00 in0.0 mm 0.00 in0.0 mm 0.00 in0.0 mm
11:15 AM 41.2°F5.1°C 35.4°F1.9°C 80% 0.9 mph N1.4 kmh N 4.0 mph6.4 kmh 30.12 in1020.0 mb 0.00 in0.0 mm 0.00 in0.0 mm 0.00 in0.0 mm
11:20 AM 41.2°F5.1°C 35.8°F2.1°C 81% 0.9 mph NNW1.4 kmh NNW 2.0 mph3.2 kmh 30.12 in1020.0 mb 0.00 in0.0 mm 0.00 in0.0 mm 0.00 in0.0 mm
11:25 AM 41.2°F5.1°C 35.8°F2.1°C 81% 0.9 mph NW1.4 kmh NW 4.0 mph6.4 kmh 30.12 in1020.0 mb 0.00 in0.0 mm 0.00 in0.0 mm 0.00 in0.0 mm
11:30 AM 41.2°F5.1°C 35.8°F2.1°C 81% 0.9 mph N1.4 kmh N 4.0 mph6.4 kmh 30.12 in1020.0 mb 0.00 in0.0 mm 0.00 in0.0 mm 0.00 in0.0 mm
11:35 AM 41.2°F5.1°C 36.1°F2.3°C 82% 0.9 mph NW1.4 kmh NW 2.0 mph3.2 kmh 30.12 in1020.0 mb 0.00 in0.0 mm 0.00 in0.0 mm 0.00 in0.0 mm
11:40 AM 41.2°F5.1°C 36.1°F2.3°C 82% 0.9 mph WNW1.4 kmh WNW 3.0 mph4.8 kmh 30.12 in1020.0 mb 0.00 in0.0 mm 0.00 in0.0 mm 0.00 in0.0 mm
11:45 AM 41.2°F5.1°C 36.1°F2.3°C 82% 0.9 mph W1.4 kmh W 4.0 mph6.4 kmh 30.12 in1020.0 mb 0.00 in0.0 mm 0.00 in0.0 mm 0.00 in0.0 mm
11:50 AM 41.2°F5.1°C 36.5°F2.5°C 83% 0.9 mph NW1.4 kmh NW 6.0 mph9.7 kmh 30.12 in1020.0 mb 0.00 in0.0 mm 0.00 in0.0 mm 0.00 in0.0 mm
11:55 AM 41.2°F5.1°C 36.7°F2.6°C 84% 0.9 mph WNW1.4 kmh WNW 2.9 mph4.7 kmh 30.12 in1020.0 mb 0.00 in0.0 mm 0.00 in0.0 mm 0.00 in0.0 mm
12:00 PM 41.2°F5.1°C 37.0°F2.8°C 85% Calm Calm 2.0 mph3.2 kmh 30.12 in1020.0 mb 0.00 in0.0 mm 0.00 in0.0 mm 0.00 in0.0 mm
12:05 PM 41.4°F5.2°C 37.2°F2.9°C 85% Calm Calm 2.0 mph3.2 kmh 30.12 in1020.0 mb 0.00 in0.0 mm 0.00 in0.0 mm 0.00 in0.0 mm
12:10 PM 41.4°F5.2°C 37.6°F3.1°C 86% Calm Calm -- 30.12 in1020.0 mb 0.00 in0.0 mm 0.00 in0.0 mm 0.00 in0.0 mm
12:15 PM 41.5°F5.3°C 37.6°F3.1°C 86% Calm Calm 2.0 mph3.2 kmh 30.12 in1020.0 mb 0.01 in0.3 mm 0.12 in3.0 mm 0.01 in0.3 mm
12:20 PM 41.5°F5.3°C 37.9°F3.3°C 87% Calm Calm 0.9 mph1.4 kmh 30.12 in1020.0 mb 0.01 in0.3 mm 0.00 in0.0 mm 0.01 in0.3 mm
12:25 PM 41.7°F5.4°C 38.1°F3.4°C 87% Calm Calm 2.0 mph3.2 kmh 30.12 in1020.0 mb 0.01 in0.3 mm 0.00 in0.0 mm 0.01 in0.3 mm
12:30 PM 41.7°F5.4°C 38.1°F3.4°C 87% Calm Calm 0.9 mph1.4 kmh 30.12 in1020.0 mb 0.01 in0.3 mm 0.00 in0.0 mm 0.01 in0.3 mm
12:35 PM 41.7°F5.4°C 38.1°F3.4°C 87% Calm Calm 3.0 mph4.8 kmh 30.12 in1020.0 mb 0.01 in0.3 mm 0.00 in0.0 mm 0.01 in0.3 mm
12:40 PM 41.5°F5.3°C 38.3°F3.5°C 88% Calm Calm 2.9 mph4.7 kmh 30.12 in1020.0 mb 0.01 in0.3 mm 0.00 in0.0 mm 0.01 in0.3 mm
12:45 PM 41.5°F5.3°C 37.9°F3.3°C 87% Calm Calm 2.0 mph3.2 kmh 30.12 in1020.0 mb 0.02 in0.5 mm 0.12 in3.0 mm 0.02 in0.5 mm
12:50 PM 41.5°F5.3°C 38.3°F3.5°C 88% Calm Calm 0.9 mph1.4 kmh 30.12 in1020.0 mb 0.02 in0.5 mm 0.00 in0.0 mm 0.02 in0.5 mm
12:55 PM 41.4°F5.2°C 38.1°F3.4°C 88% Calm Calm 0.9 mph1.4 kmh 30.12 in1020.0 mb 0.02 in0.5 mm 0.00 in0.0 mm 0.02 in0.5 mm
01:00 PM 41.2°F5.1°C 37.9°F3.3°C 88% Calm Calm 6.0 mph9.7 kmh 30.12 in1020.0 mb 0.02 in0.5 mm 0.00 in0.0 mm 0.02 in0.5 mm
01:05 PM 41.0°F5.0°C 37.8°F3.2°C 88% 0.9 mph W1.4 kmh W 4.0 mph6.4 kmh 30.12 in1020.0 mb 0.02 in0.5 mm 0.00 in0.0 mm 0.02 in0.5 mm
01:10 PM 41.2°F5.1°C 38.1°F3.4°C 89% Calm Calm 0.9 mph1.4 kmh 30.12 in1020.0 mb 0.03 in0.8 mm 0.12 in3.0 mm 0.03 in0.8 mm
01:15 PM 41.2°F5.1°C 37.9°F3.3°C 88% Calm Calm 2.9 mph4.7 kmh 30.12 in1020.0 mb 0.02 in0.5 mm 0.00 in0.0 mm 0.03 in0.8 mm
01:20 PM 40.8°F4.9°C 37.8°F3.2°C 89% Calm Calm 0.9 mph1.4 kmh 30.12 in1020.0 mb 0.02 in0.5 mm 0.00 in0.0 mm 0.03 in0.8 mm
01:25 PM 40.8°F4.9°C 37.8°F3.2°C 89% Calm Calm 2.0 mph3.2 kmh 30.11 in1019.6 mb 0.02 in0.5 mm 0.00 in0.0 mm 0.03 in0.8 mm
01:30 PM 40.6°F4.8°C 37.6°F3.1°C 89% 0.9 mph WSW1.4 kmh WSW 3.0 mph4.8 kmh 30.12 in1020.0 mb 0.03 in0.8 mm 0.12 in3.0 mm 0.04 in1.0 mm
01:35 PM 40.6°F4.8°C 37.9°F3.3°C 90% Calm Calm 0.9 mph1.4 kmh 30.12 in1020.0 mb 0.03 in0.8 mm 0.00 in0.0 mm 0.04 in1.0 mm
01:40 PM 40.6°F4.8°C 37.6°F3.1°C 89% Calm Calm 2.9 mph4.7 kmh 30.11 in1019.6 mb 0.03 in0.8 mm 0.00 in0.0 mm 0.04 in1.0 mm
01:45 PM 40.6°F4.8°C 37.6°F3.1°C 89% 0.9 mph SW1.4 kmh SW 2.9 mph4.7 kmh 30.11 in1019.6 mb 0.02 in0.5 mm 0.00 in0.0 mm 0.04 in1.0 mm
01:50 PM 40.6°F4.8°C 37.6°F3.1°C 89% Calm Calm 2.9 mph4.7 kmh 30.12 in1020.0 mb 0.03 in0.8 mm 0.12 in3.0 mm 0.05 in1.3 mm
01:55 PM 40.6°F4.8°C 37.9°F3.3°C 90% Calm Calm 2.0 mph3.2 kmh 30.12 in1020.0 mb 0.03 in0.8 mm 0.00 in0.0 mm 0.05 in1.3 mm
02:00 PM 40.6°F4.8°C 37.9°F3.3°C 90% Calm Calm 2.9 mph4.7 kmh 30.12 in1020.0 mb 0.03 in0.8 mm 0.00 in0.0 mm 0.05 in1.3 mm
02:05 PM 40.6°F4.8°C 37.9°F3.3°C 90% Calm Calm 2.0 mph3.2 kmh 30.12 in1020.0 mb 0.03 in0.8 mm 0.00 in0.0 mm 0.05 in1.3 mm
02:10 PM 40.6°F4.8°C 37.9°F3.3°C 90% Calm Calm 3.0 mph4.8 kmh 30.12 in1020.0 mb 0.03 in0.8 mm 0.00 in0.0 mm 0.06 in1.5 mm
02:15 PM 40.5°F4.7°C 37.8°F3.2°C 90% 0.9 mph SW1.4 kmh SW 2.9 mph4.7 kmh 30.12 in1020.0 mb 0.03 in0.8 mm 0.00 in0.0 mm 0.06 in1.5 mm
02:20 PM 40.5°F4.7°C 37.8°F3.2°C 90% Calm Calm 0.9 mph1.4 kmh 30.12 in1020.0 mb 0.03 in0.8 mm 0.00 in0.0 mm 0.06 in1.5 mm
02:25 PM 40.5°F4.7°C 38.1°F3.4°C 91% Calm Calm 2.9 mph4.7 kmh 30.12 in1020.0 mb 0.03 in0.8 mm 0.00 in0.0 mm 0.06 in1.5 mm
02:30 PM 40.5°F4.7°C 38.1°F3.4°C 91% Calm Calm 0.9 mph1.4 kmh 30.12 in1020.0 mb 0.02 in0.5 mm 0.00 in0.0 mm 0.06 in1.5 mm
02:35 PM 40.3°F4.6°C 37.9°F3.3°C 91% Calm Calm 4.0 mph6.4 kmh 30.12 in1020.0 mb 0.03 in0.8 mm 0.12 in3.0 mm 0.07 in1.8 mm
02:40 PM 40.3°F4.6°C 37.9°F3.3°C 91% 0.9 mph SW1.4 kmh SW 2.9 mph4.7 kmh 30.13 in1020.3 mb 0.03 in0.8 mm 0.00 in0.0 mm 0.07 in1.8 mm
02:45 PM 40.3°F4.6°C 37.9°F3.3°C 91% Calm Calm 4.0 mph6.4 kmh 30.13 in1020.3 mb 0.03 in0.8 mm 0.00 in0.0 mm 0.07 in1.8 mm
02:50 PM 40.3°F4.6°C 37.9°F3.3°C 91% Calm Calm 2.9 mph4.7 kmh 30.13 in1020.3 mb 0.02 in0.5 mm 0.00 in0.0 mm 0.07 in1.8 mm
02:55 PM 40.3°F4.6°C 37.9°F3.3°C 91% 0.9 mph SW1.4 kmh SW 2.9 mph4.7 kmh 30.13 in1020.3 mb 0.02 in0.5 mm 0.00 in0.0 mm 0.07 in1.8 mm
03:00 PM 40.3°F4.6°C 37.9°F3.3°C 91% 0.9 mph SW1.4 kmh SW 4.0 mph6.4 kmh 30.13 in1020.3 mb 0.02 in0.5 mm 0.00 in0.0 mm 0.07 in1.8 mm
03:05 PM 40.3°F4.6°C 37.9°F3.3°C 91% 0.9 mph SW1.4 kmh SW 4.0 mph6.4 kmh 30.13 in1020.3 mb 0.02 in0.5 mm 0.00 in0.0 mm 0.07 in1.8 mm
03:10 PM 40.3°F4.6°C 37.9°F3.3°C 91% 0.9 mph SW1.4 kmh SW 4.0 mph6.4 kmh 30.13 in1020.3 mb 0.01 in0.3 mm 0.00 in0.0 mm 0.07 in1.8 mm
03:15 PM 40.5°F4.7°C 38.1°F3.4°C 91% Calm Calm 2.0 mph3.2 kmh 30.13 in1020.3 mb 0.01 in0.3 mm 0.00 in0.0 mm 0.07 in1.8 mm
03:21 PM 40.5°F4.7°C 38.1°F3.4°C 91% Calm Calm 2.9 mph4.7 kmh 30.13 in1020.3 mb 0.01 in0.3 mm 0.00 in0.0 mm 0.07 in1.8 mm
03:26 PM 40.5°F4.7°C 38.1°F3.4°C 91% Calm Calm 0.9 mph1.4 kmh 30.13 in1020.3 mb 0.01 in0.3 mm 0.00 in0.0 mm 0.07 in1.8 mm
03:31 PM 40.6°F4.8°C 38.3°F3.5°C 91% Calm Calm 3.0 mph4.8 kmh 30.13 in1020.3 mb 0.01 in0.3 mm 0.00 in0.0 mm 0.07 in1.8 mm
03:36 PM 40.6°F4.8°C 38.5°F3.6°C 92% 0.9 mph SW1.4 kmh SW 2.9 mph4.7 kmh 30.13 in1020.3 mb 0.00 in0.0 mm 0.00 in0.0 mm 0.07 in1.8 mm
03:41 PM 40.6°F4.8°C 38.5°F3.6°C 92% Calm Calm 4.0 mph6.4 kmh 30.13 in1020.3 mb 0.00 in0.0 mm 0.00 in0.0 mm 0.07 in1.8 mm
03:46 PM 40.6°F4.8°C 38.5°F3.6°C 92% Calm Calm 2.0 mph3.2 kmh 30.14 in1020.7 mb 0.00 in0.0 mm 0.00 in0.0 mm 0.07 in1.8 mm
03:51 PM 40.6°F4.8°C 38.5°F3.6°C 92% Calm Calm 3.0 mph4.8 kmh 30.13 in1020.3 mb 0.00 in0.0 mm 0.00 in0.0 mm 0.07 in1.8 mm
03:56 PM 40.6°F4.8°C 38.5°F3.6°C 92% Calm Calm 2.0 mph3.2 kmh 30.14 in1020.7 mb 0.00 in0.0 mm 0.00 in0.0 mm 0.07 in1.8 mm
04:01 PM 40.6°F4.8°C 38.5°F3.6°C 92% Calm Calm 2.0 mph3.2 kmh 30.13 in1020.3 mb 0.00 in0.0 mm 0.00 in0.0 mm 0.07 in1.8 mm
04:06 PM 40.6°F4.8°C 38.5°F3.6°C 92% Calm Calm 2.0 mph3.2 kmh 30.13 in1020.3 mb 0.00 in0.0 mm 0.00 in0.0 mm 0.07 in1.8 mm
04:11 PM 40.6°F4.8°C 38.5°F3.6°C 92% Calm Calm 3.0 mph4.8 kmh 30.13 in1020.3 mb 0.00 in0.0 mm 0.00 in0.0 mm 0.07 in1.8 mm
04:16 PM 40.6°F4.8°C 38.5°F3.6°C 92% Calm Calm 2.0 mph3.2 kmh 30.13 in1020.3 mb 0.00 in0.0 mm 0.00 in0.0 mm 0.07 in1.8 mm
04:21 PM 40.6°F4.8°C 38.5°F3.6°C 92% Calm Calm 2.0 mph3.2 kmh 30.13 in1020.3 mb 0.00 in0.0 mm 0.00 in0.0 mm 0.07 in1.8 mm
04:26 PM 40.6°F4.8°C 38.5°F3.6°C 92% Calm Calm 3.0 mph4.8 kmh 30.13 in1020.3 mb 0.00 in0.0 mm 0.00 in0.0 mm 0.07 in1.8 mm
04:31 PM 40.6°F4.8°C 38.5°F3.6°C 92% Calm Calm 0.9 mph1.4 kmh 30.13 in1020.3 mb 0.00 in0.0 mm 0.00 in0.0 mm 0.07 in1.8 mm
04:36 PM 40.6°F4.8°C 38.5°F3.6°C 92% Calm Calm 0.9 mph1.4 kmh 30.13 in1020.3 mb 0.00 in0.0 mm 0.00 in0.0 mm 0.07 in1.8 mm
04:41 PM 40.6°F4.8°C 38.5°F3.6°C 92% Calm Calm 0.9 mph1.4 kmh 30.14 in1020.7 mb 0.00 in0.0 mm 0.00 in0.0 mm 0.07 in1.8 mm
04:46 PM 40.6°F4.8°C 38.5°F3.6°C 92% Calm Calm 2.0 mph3.2 kmh 30.14 in1020.7 mb 0.00 in0.0 mm 0.00 in0.0 mm 0.07 in1.8 mm
04:51 PM 40.6°F4.8°C 38.5°F3.6°C 92% Calm Calm 3.0 mph4.8 kmh 30.14 in1020.7 mb 0.00 in0.0 mm 0.00 in0.0 mm 0.07 in1.8 mm
04:56 PM 40.6°F4.8°C 38.5°F3.6°C 92% Calm Calm 2.0 mph3.2 kmh 30.14 in1020.7 mb 0.00 in0.0 mm 0.00 in0.0 mm 0.07 in1.8 mm
05:01 PM 40.6°F4.8°C 38.5°F3.6°C 92% Calm Calm 0.9 mph1.4 kmh 30.14 in1020.7 mb 0.00 in0.0 mm 0.00 in0.0 mm 0.07 in1.8 mm
05:06 PM 40.5°F4.7°C 38.3°F3.5°C 92% Calm Calm 2.0 mph3.2 kmh 30.14 in1020.7 mb 0.00 in0.0 mm 0.00 in0.0 mm 0.07 in1.8 mm
05:11 PM 40.5°F4.7°C 38.3°F3.5°C 92% Calm Calm 3.0 mph4.8 kmh 30.14 in1020.7 mb 0.00 in0.0 mm 0.00 in0.0 mm 0.07 in1.8 mm
05:16 PM 40.5°F4.7°C 38.3°F3.5°C 92% Calm Calm 2.0 mph3.2 kmh 30.15 in1021.0 mb 0.00 in0.0 mm 0.00 in0.0 mm 0.07 in1.8 mm
05:21 PM 40.5°F4.7°C 38.3°F3.5°C 92% Calm Calm 2.0 mph3.2 kmh 30.15 in1021.0 mb 0.00 in0.0 mm 0.00 in0.0 mm 0.07 in1.8 mm
05:26 PM 40.5°F4.7°C 38.3°F3.5°C 92% Calm Calm 2.9 mph4.7 kmh 30.15 in1021.0 mb 0.00 in0.0 mm 0.00 in0.0 mm 0.07 in1.8 mm
05:31 PM 40.5°F4.7°C 38.3°F3.5°C 92% Calm Calm 0.9 mph1.4 kmh 30.15 in1021.0 mb 0.00 in0.0 mm 0.00 in0.0 mm 0.07 in1.8 mm
05:36 PM 40.3°F4.6°C 38.5°F3.6°C 93% Calm Calm 2.0 mph3.2 kmh 30.15 in1021.0 mb 0.00 in0.0 mm 0.00 in0.0 mm 0.07 in1.8 mm
05:41 PM 40.3°F4.6°C 38.5°F3.6°C 93% Calm Calm 0.9 mph1.4 kmh 30.15 in1021.0 mb 0.00 in0.0 mm 0.00 in0.0 mm 0.07 in1.8 mm
05:46 PM 40.3°F4.6°C 38.5°F3.6°C 93% Calm Calm 0.9 mph1.4 kmh 30.15 in1021.0 mb 0.00 in0.0 mm 0.00 in0.0 mm 0.07 in1.8 mm
05:51 PM 40.3°F4.6°C 38.5°F3.6°C 93% Calm Calm 0.9 mph1.4 kmh 30.15 in1021.0 mb 0.00 in0.0 mm 0.00 in0.0 mm 0.07 in1.8 mm
05:56 PM 40.3°F4.6°C 38.5°F3.6°C 93% Calm Calm 0.9 mph1.4 kmh 30.15 in1021.0 mb 0.00 in0.0 mm 0.00 in0.0 mm 0.07 in1.8 mm
06:01 PM 40.3°F4.6°C 38.5°F3.6°C 93% Calm Calm 2.9 mph4.7 kmh 30.15 in1021.0 mb 0.00 in0.0 mm 0.00 in0.0 mm 0.07 in1.8 mm
06:06 PM 40.3°F4.6°C 38.5°F3.6°C 93% Calm Calm 2.0 mph3.2 kmh 30.15 in1021.0 mb 0.00 in0.0 mm 0.00 in0.0 mm 0.07 in1.8 mm
06:11 PM 40.3°F4.6°C 38.5°F3.6°C 93% Calm Calm 0.9 mph1.4 kmh 30.15 in1021.0 mb 0.00 in0.0 mm 0.00 in0.0 mm 0.07 in1.8 mm
06:16 PM 40.3°F4.6°C 38.5°F3.6°C 93% Calm Calm 0.9 mph1.4 kmh 30.15 in1021.0 mb 0.00 in0.0 mm 0.00 in0.0 mm 0.07 in1.8 mm
06:21 PM 40.1°F4.5°C 38.3°F3.5°C 93% Calm Calm 0.9 mph1.4 kmh 30.15 in1021.0 mb 0.00 in0.0 mm 0.00 in0.0 mm 0.07 in1.8 mm
06:26 PM 39.9°F4.4°C 38.1°F3.4°C 93% Calm Calm 0.9 mph1.4 kmh 30.16 in1021.3 mb 0.00 in0.0 mm 0.00 in0.0 mm 0.07 in1.8 mm
06:31 PM 39.7°F4.3°C 37.9°F3.3°C 93% Calm Calm 0.9 mph1.4 kmh 30.16 in1021.3 mb 0.00 in0.0 mm 0.00 in0.0 mm 0.07 in1.8 mm
06:36 PM 39.6°F4.2°C 37.8°F3.2°C 93% Calm Calm 0.9 mph1.4 kmh 30.15 in1021.0 mb 0.00 in0.0 mm 0.00 in0.0 mm 0.07 in1.8 mm
06:41 PM 39.4°F4.1°C 37.6°F3.1°C 93% Calm Calm 0.9 mph1.4 kmh 30.16 in1021.3 mb 0.00 in0.0 mm 0.00 in0.0 mm 0.07 in1.8 mm
06:46 PM 39.2°F4.0°C 37.4°F3.0°C 93% Calm Calm 0.9 mph1.4 kmh 30.16 in1021.3 mb 0.00 in0.0 mm 0.00 in0.0 mm 0.07 in1.8 mm
06:51 PM 39.0°F3.9°C 37.4°F3.0°C 94% Calm Calm -- 30.16 in1021.3 mb 0.00 in0.0 mm 0.00 in0.0 mm 0.07 in1.8 mm
06:56 PM 38.8°F3.8°C 37.2°F2.9°C 94% Calm Calm -- 30.16 in1021.3 mb 0.00 in0.0 mm 0.00 in0.0 mm 0.07 in1.8 mm
07:01 PM 38.7°F3.7°C 37.0°F2.8°C 94% Calm Calm -- 30.16 in1021.3 mb 0.00 in0.0 mm 0.00 in0.0 mm 0.07 in1.8 mm
07:06 PM 38.7°F3.7°C 37.0°F2.8°C 94% Calm Calm -- 30.16 in1021.3 mb 0.00 in0.0 mm 0.00 in0.0 mm 0.07 in1.8 mm
07:11 PM 38.5°F3.6°C 36.9°F2.7°C 94% Calm Calm -- 30.16 in1021.3 mb 0.00 in0.0 mm 0.00 in0.0 mm 0.07 in1.8 mm
07:16 PM 38.5°F3.6°C 36.9°F2.7°C 94% Calm Calm 1.0 mph1.6 kmh 30.16 in1021.3 mb 0.00 in0.0 mm 0.00 in0.0 mm 0.07 in1.8 mm
07:21 PM 38.3°F3.5°C 36.7°F2.6°C 94% Calm Calm 2.0 mph3.2 kmh 30.16 in1021.3 mb 0.00 in0.0 mm 0.00 in0.0 mm 0.07 in1.8 mm
07:26 PM 38.1°F3.4°C 36.5°F2.5°C 94% Calm Calm 0.9 mph1.4 kmh 30.16 in1021.3 mb 0.00 in0.0 mm 0.00 in0.0 mm 0.07 in1.8 mm
07:31 PM 38.1°F3.4°C 36.5°F2.5°C 94% Calm Calm 2.0 mph3.2 kmh 30.16 in1021.3 mb 0.00 in0.0 mm 0.00 in0.0 mm 0.07 in1.8 mm
07:36 PM 38.1°F3.4°C 36.5°F2.5°C 94% Calm Calm 3.0 mph4.8 kmh 30.16 in1021.3 mb 0.00 in0.0 mm 0.00 in0.0 mm 0.07 in1.8 mm
07:41 PM 37.9°F3.3°C 36.3°F2.4°C 94% Calm Calm 0.9 mph1.4 kmh 30.16 in1021.3 mb 0.00 in0.0 mm 0.00 in0.0 mm 0.07 in1.8 mm
07:46 PM 37.9°F3.3°C 36.3°F2.4°C 94% Calm Calm 0.9 mph1.4 kmh 30.16 in1021.3 mb 0.00 in0.0 mm 0.00 in0.0 mm 0.07 in1.8 mm
07:51 PM 37.8°F3.2°C 36.5°F2.5°C 95% Calm Calm -- 30.16 in1021.3 mb 0.00 in0.0 mm 0.00 in0.0 mm 0.07 in1.8 mm
07:56 PM 37.9°F3.3°C 36.7°F2.6°C 95% Calm Calm 0.9 mph1.4 kmh 30.16 in1021.3 mb 0.00 in0.0 mm 0.00 in0.0 mm 0.07 in1.8 mm
08:01 PM 37.9°F3.3°C 36.7°F2.6°C 95% Calm Calm 0.9 mph1.4 kmh 30.16 in1021.3 mb 0.00 in0.0 mm 0.00 in0.0 mm 0.07 in1.8 mm
08:06 PM 38.1°F3.4°C 36.9°F2.7°C 95% Calm Calm 0.9 mph1.4 kmh 30.16 in1021.3 mb 0.00 in0.0 mm 0.00 in0.0 mm 0.07 in1.8 mm
08:11 PM 38.1°F3.4°C 36.9°F2.7°C 95% Calm Calm 0.9 mph1.4 kmh 30.16 in1021.3 mb 0.00 in0.0 mm 0.00 in0.0 mm 0.07 in1.8 mm
08:16 PM 38.3°F3.5°C 37.0°F2.8°C 95% Calm Calm 0.9 mph1.4 kmh 30.16 in1021.3 mb 0.00 in0.0 mm 0.00 in0.0 mm 0.07 in1.8 mm
08:21 PM 38.5°F3.6°C 37.2°F2.9°C 95% Calm Calm 0.9 mph1.4 kmh 30.16 in1021.3 mb 0.00 in0.0 mm 0.00 in0.0 mm 0.07 in1.8 mm
08:26 PM 38.5°F3.6°C 37.2°F2.9°C 95% Calm Calm 0.9 mph1.4 kmh 30.15 in1021.0 mb 0.00 in0.0 mm 0.00 in0.0 mm 0.07 in1.8 mm
08:31 PM 38.7°F3.7°C 37.4°F3.0°C 95% Calm Calm 2.0 mph3.2 kmh 30.15 in1021.0 mb 0.00 in0.0 mm 0.00 in0.0 mm 0.07 in1.8 mm
08:36 PM 38.7°F3.7°C 37.4°F3.0°C 95% Calm Calm 0.9 mph1.4 kmh 30.16 in1021.3 mb 0.00 in0.0 mm 0.00 in0.0 mm 0.07 in1.8 mm
08:41 PM 38.8°F3.8°C 37.6°F3.1°C 95% Calm Calm 2.0 mph3.2 kmh 30.17 in1021.7 mb 0.00 in0.0 mm 0.00 in0.0 mm 0.07 in1.8 mm
08:46 PM 39.0°F3.9°C 37.8°F3.2°C 95% Calm Calm 5.0 mph8.0 kmh 30.17 in1021.7 mb 0.00 in0.0 mm 0.00 in0.0 mm 0.07 in1.8 mm
08:51 PM 39.4°F4.1°C 37.8°F3.2°C 94% Calm Calm 4.0 mph6.4 kmh 30.17 in1021.7 mb 0.00 in0.0 mm 0.00 in0.0 mm 0.07 in1.8 mm
08:56 PM 39.4°F4.1°C 37.6°F3.1°C 93% Calm Calm 2.9 mph4.7 kmh 30.17 in1021.7 mb 0.00 in0.0 mm 0.00 in0.0 mm 0.07 in1.8 mm
09:01 PM 39.6°F4.2°C 37.4°F3.0°C 92% Calm Calm 2.0 mph3.2 kmh 30.17 in1021.7 mb 0.00 in0.0 mm 0.00 in0.0 mm 0.07 in1.8 mm
09:06 PM 39.4°F4.1°C 37.2°F2.9°C 92% Calm Calm 2.0 mph3.2 kmh 30.17 in1021.7 mb 0.00 in0.0 mm 0.00 in0.0 mm 0.07 in1.8 mm
09:11 PM 39.4°F4.1°C 37.2°F2.9°C 92% Calm Calm 2.0 mph3.2 kmh 30.17 in1021.7 mb 0.00 in0.0 mm 0.00 in0.0 mm 0.07 in1.8 mm
09:16 PM 39.4°F4.1°C 37.2°F2.9°C 92% Calm Calm 3.0 mph4.8 kmh 30.17 in1021.7 mb 0.00 in0.0 mm 0.00 in0.0 mm 0.07 in1.8 mm
09:21 PM 39.2°F4.0°C 36.9°F2.7°C 91% Calm Calm 3.0 mph4.8 kmh 30.17 in1021.7 mb 0.00 in0.0 mm 0.00 in0.0 mm 0.07 in1.8 mm
09:26 PM 39.2°F4.0°C 36.9°F2.7°C 91% Calm Calm 2.0 mph3.2 kmh 30.18 in1022.0 mb 0.00 in0.0 mm 0.00 in0.0 mm 0.07 in1.8 mm
09:31 PM 39.0°F3.9°C 36.7°F2.6°C 91% Calm Calm 2.0 mph3.2 kmh 30.17 in1021.7 mb 0.00 in0.0 mm 0.00 in0.0 mm 0.07 in1.8 mm
09:36 PM 39.0°F3.9°C 36.3°F2.4°C 90% Calm Calm 0.9 mph1.4 kmh 30.17 in1021.7 mb 0.00 in0.0 mm 0.00 in0.0 mm 0.07 in1.8 mm
09:41 PM 38.8°F3.8°C 36.1°F2.3°C 90% Calm Calm 2.0 mph3.2 kmh 30.18 in1022.0 mb 0.00 in0.0 mm 0.00 in0.0 mm 0.07 in1.8 mm
09:46 PM 38.7°F3.7°C 36.0°F2.2°C 90% Calm Calm 0.9 mph1.4 kmh 30.18 in1022.0 mb 0.00 in0.0 mm 0.00 in0.0 mm 0.07 in1.8 mm
09:51 PM 38.5°F3.6°C 35.8°F2.1°C 90% Calm Calm 2.0 mph3.2 kmh 30.18 in1022.0 mb 0.00 in0.0 mm 0.00 in0.0 mm 0.07 in1.8 mm
09:56 PM 38.1°F3.4°C 35.4°F1.9°C 90% Calm Calm 2.0 mph3.2 kmh 30.18 in1022.0 mb 0.00 in0.0 mm 0.00 in0.0 mm 0.07 in1.8 mm
10:01 PM 37.9°F3.3°C 35.2°F1.8°C 90% Calm Calm 2.0 mph3.2 kmh 30.18 in1022.0 mb 0.00 in0.0 mm 0.00 in0.0 mm 0.07 in1.8 mm
10:06 PM 37.8°F3.2°C 35.1°F1.7°C 90% Calm Calm 3.0 mph4.8 kmh 30.18 in1022.0 mb 0.00 in0.0 mm 0.00 in0.0 mm 0.07 in1.8 mm
10:11 PM 37.6°F3.1°C 34.9°F1.6°C 90% Calm Calm 4.0 mph6.4 kmh 30.18 in1022.0 mb 0.00 in0.0 mm 0.00 in0.0 mm 0.07 in1.8 mm
10:16 PM 37.6°F3.1°C 34.9°F1.6°C 90% 0.9 mph SW1.4 kmh SW 4.0 mph6.4 kmh 30.18 in1022.0 mb 0.00 in0.0 mm 0.00 in0.0 mm 0.07 in1.8 mm
10:22 PM 37.4°F3.0°C 34.7°F1.5°C 90% 0.9 mph WSW1.4 kmh WSW 2.9 mph4.7 kmh 30.18 in1022.0 mb 0.00 in0.0 mm 0.00 in0.0 mm 0.07 in1.8 mm
10:27 PM 37.2°F2.9°C 34.5°F1.4°C 90% Calm Calm 4.0 mph6.4 kmh 30.18 in1022.0 mb 0.00 in0.0 mm 0.00 in0.0 mm 0.07 in1.8 mm
10:32 PM 37.2°F2.9°C 34.5°F1.4°C 90% Calm Calm 2.0 mph3.2 kmh 30.18 in1022.0 mb 0.00 in0.0 mm 0.00 in0.0 mm 0.07 in1.8 mm
10:37 PM 37.0°F2.8°C 34.3°F1.3°C 90% 0.9 mph SW1.4 kmh SW 2.9 mph4.7 kmh 30.18 in1022.0 mb 0.00 in0.0 mm 0.00 in0.0 mm 0.07 in1.8 mm
10:42 PM 37.0°F2.8°C 34.3°F1.3°C 90% 0.9 mph WSW1.4 kmh WSW 2.9 mph4.7 kmh 30.18 in1022.0 mb 0.00 in0.0 mm 0.00 in0.0 mm 0.07 in1.8 mm
10:47 PM 37.0°F2.8°C 34.3°F1.3°C 90% 0.9 mph WNW1.4 kmh WNW 2.9 mph4.7 kmh 30.18 in1022.0 mb 0.00 in0.0 mm 0.00 in0.0 mm 0.07 in1.8 mm
10:52 PM 37.2°F2.9°C 34.5°F1.4°C 90% Calm Calm 2.0 mph3.2 kmh 30.18 in1022.0 mb 0.00 in0.0 mm 0.00 in0.0 mm 0.07 in1.8 mm
10:57 PM 37.2°F2.9°C 34.5°F1.4°C 90% Calm Calm 2.0 mph3.2 kmh 30.18 in1022.0 mb 0.00 in0.0 mm 0.00 in0.0 mm 0.07 in1.8 mm
11:02 PM 37.2°F2.9°C 34.5°F1.4°C 90% Calm Calm 4.0 mph6.4 kmh 30.18 in1022.0 mb 0.00 in0.0 mm 0.00 in0.0 mm 0.06 in1.5 mm
11:07 PM 37.4°F3.0°C 34.7°F1.5°C 90% 0.9 mph NNW1.4 kmh NNW 4.0 mph6.4 kmh 30.18 in1022.0 mb 0.00 in0.0 mm 0.00 in0.0 mm 0.06 in1.5 mm
11:12 PM 37.4°F3.0°C 34.7°F1.5°C 90% 0.9 mph W1.4 kmh W 4.0 mph6.4 kmh 30.18 in1022.0 mb 0.00 in0.0 mm 0.00 in0.0 mm 0.06 in1.5 mm
11:17 PM 37.4°F3.0°C 34.7°F1.5°C 90% Calm Calm 2.0 mph3.2 kmh 30.18 in1022.0 mb 0.00 in0.0 mm 0.00 in0.0 mm 0.06 in1.5 mm
11:22 PM 37.4°F3.0°C 34.5°F1.4°C 89% Calm Calm 2.0 mph3.2 kmh 30.18 in1022.0 mb 0.00 in0.0 mm 0.00 in0.0 mm 0.06 in1.5 mm
11:27 PM 37.2°F2.9°C 34.3°F1.3°C 89% Calm Calm 2.9 mph4.7 kmh 30.18 in1022.0 mb 0.00 in0.0 mm 0.00 in0.0 mm 0.06 in1.5 mm
11:32 PM 37.2°F2.9°C 34.3°F1.3°C 89% Calm Calm 4.0 mph6.4 kmh 30.18 in1022.0 mb 0.00 in0.0 mm 0.00 in0.0 mm 0.06 in1.5 mm
11:37 PM 37.2°F2.9°C 34.3°F1.3°C 89% 0.9 mph NW1.4 kmh NW 2.9 mph4.7 kmh 30.18 in1022.0 mb 0.00 in0.0 mm 0.00 in0.0 mm 0.06 in1.5 mm
11:42 PM 37.0°F2.8°C 34.2°F1.2°C 89% Calm Calm 4.0 mph6.4 kmh 30.18 in1022.0 mb 0.00 in0.0 mm 0.00 in0.0 mm 0.06 in1.5 mm
11:47 PM 36.9°F2.7°C 34.0°F1.1°C 89% Calm Calm 2.9 mph4.7 kmh 30.18 in1022.0 mb 0.00 in0.0 mm 0.00 in0.0 mm 0.06 in1.5 mm
11:52 PM 36.7°F2.6°C 33.8°F1.0°C 89% Calm Calm 2.0 mph3.2 kmh 30.18 in1022.0 mb 0.00 in0.0 mm 0.00 in0.0 mm 0.06 in1.5 mm
11:57 PM 36.7°F2.6°C 33.8°F1.0°C 89% Calm Calm 2.9 mph4.7 kmh 30.18 in1022.0 mb 0.00 in0.0 mm 0.00 in0.0 mm 0.06 in1.5 mm